KTAD/TAD METAR and TAF weather

Enter ICAO airport designator
Station Type Date Time Source
KTAD METAR 2021/03/01 03:54 UTC NOAA

KTAD 010354Z AUTO 25010KT 10SM CLR M04/M09 A3016 RMK AO2 SLP236 T10391089


Station Type Date Time Source
KTAD Decoded METAR 2021/03/01 03:54 UTC NOAA

Trinidad, Perry Stokes Airport, CO, United States (KTAD) 37-16N 104-26W
Feb 28, 2021 - 10:54 PM EST / 2021.03.01 0354 UTC
Wind: from the WSW (250 degrees) at 12 MPH (10 KT):0
Visibility: 10 mile(s):0
Sky conditions: clear
Temperature: 25.0 F (-3.9 C)
Windchill: 14 F (-10 C):1
Dew Point: 16.0 F (-8.9 C)
Relative Humidity: 68%
Pressure (altimeter): 30.16 in. Hg (1021 hPa)
ob: KTAD 010354Z AUTO 25010KT 10SM CLR M04/M09 A3016 RMK AO2 SLP236 T10391089
cycle: 4

Station Type Date Time Source
KTAD TAF UTC NOAA

Error!

Example: see airport list